sensor_id;sensor_type;location;lat;lon;timestamp;temperature;humidity
81031;SHT31;70513;51.984;5.648;2023-06-22T00:01:31;21.6;64.2
81031;SHT31;70513;51.984;5.648;2023-06-22T00:03:59;21.6;64.1
81031;SHT31;70513;51.984;5.648;2023-06-22T00:06:28;21.6;64.0
81031;SHT31;70513;51.984;5.648;2023-06-22T00:08:56;21.6;64.2
81031;SHT31;70513;51.984;5.648;2023-06-22T00:11:25;21.6;64.3
81031;SHT31;70513;51.984;5.648;2023-06-22T00:13:56;21.6;64.1
81031;SHT31;70513;51.984;5.648;2023-06-22T00:16:24;21.5;64.1
81031;SHT31;70513;51.984;5.648;2023-06-22T00:18:53;21.5;64.4
81031;SHT31;70513;51.984;5.648;2023-06-22T00:21:21;21.5;64.8
81031;SHT31;70513;51.984;5.648;2023-06-22T00:23:50;21.5;65.0
81031;SHT31;70513;51.984;5.648;2023-06-22T00:26:18;21.5;64.3
81031;SHT31;70513;51.984;5.648;2023-06-22T00:28:47;21.5;64.8
81031;SHT31;70513;51.984;5.648;2023-06-22T00:31:15;21.4;64.7
81031;SHT31;70513;51.984;5.648;2023-06-22T00:33:44;21.4;64.5
81031;SHT31;70513;51.984;5.648;2023-06-22T00:36:13;21.4;64.7
81031;SHT31;70513;51.984;5.648;2023-06-22T00:38:42;21.3;64.5
81031;SHT31;70513;51.984;5.648;2023-06-22T00:41:11;21.3;64.6
81031;SHT31;70513;51.984;5.648;2023-06-22T00:43:41;21.3;64.9
81031;SHT31;70513;51.984;5.648;2023-06-22T00:46:10;21.2;65.1
81031;SHT31;70513;51.984;5.648;2023-06-22T00:48:40;21.2;65.3
81031;SHT31;70513;51.984;5.648;2023-06-22T00:51:10;21.2;66.1
81031;SHT31;70513;51.984;5.648;2023-06-22T00:53:41;21.1;66.0
81031;SHT31;70513;51.984;5.648;2023-06-22T00:56:10;21.1;65.6
81031;SHT31;70513;51.984;5.648;2023-06-22T00:58:41;21.1;65.4
81031;SHT31;70513;51.984;5.648;2023-06-22T01:01:09;21.1;65.2
81031;SHT31;70513;51.984;5.648;2023-06-22T01:03:40;21.0;65.2
81031;SHT31;70513;51.984;5.648;2023-06-22T01:06:12;21.0;65.0
81031;SHT31;70513;51.984;5.648;2023-06-22T01:08:57;21.0;65.0
81031;SHT31;70513;51.984;5.648;2023-06-22T01:11:28;20.9;64.9
81031;SHT31;70513;51.984;5.648;2023-06-22T01:14:04;20.9;65.0
81031;SHT31;70513;51.984;5.648;2023-06-22T01:16:39;20.9;65.0
81031;SHT31;70513;51.984;5.648;2023-06-22T01:19:20;20.8;65.2
81031;SHT31;70513;51.984;5.648;2023-06-22T01:21:55;20.8;66.1
81031;SHT31;70513;51.984;5.648;2023-06-22T01:24:27;20.8;66.1
81031;SHT31;70513;51.984;5.648;2023-06-22T01:27:09;20.7;65.7
81031;SHT31;70513;51.984;5.648;2023-06-22T01:29:40;20.7;65.9
81031;SHT31;70513;51.984;5.648;2023-06-22T01:32:11;20.7;65.7
81031;SHT31;70513;51.984;5.648;2023-06-22T01:34:43;20.6;66.2
81031;SHT31;70513;51.984;5.648;2023-06-22T01:37:12;20.6;66.7
81031;SHT31;70513;51.984;5.648;2023-06-22T01:39:42;20.6;67.0
81031;SHT31;70513;51.984;5.648;2023-06-22T01:42:12;20.6;66.6
81031;SHT31;70513;51.984;5.648;2023-06-22T01:44:40;20.5;66.4
81031;SHT31;70513;51.984;5.648;2023-06-22T01:47:10;20.5;66.5
81031;SHT31;70513;51.984;5.648;2023-06-22T01:49:42;20.5;66.5
81031;SHT31;70513;51.984;5.648;2023-06-22T01:52:11;20.5;66.0
81031;SHT31;70513;51.984;5.648;2023-06-22T01:54:41;20.4;65.9
81031;SHT31;70513;51.984;5.648;2023-06-22T01:57:10;20.4;66.1
81031;SHT31;70513;51.984;5.648;2023-06-22T01:59:48;20.4;66.2
81031;SHT31;70513;51.984;5.648;2023-06-22T02:02:21;20.3;66.9
81031;SHT31;70513;51.984;5.648;2023-06-22T02:04:58;20.3;67.2
81031;SHT31;70513;51.984;5.648;2023-06-22T02:07:32;20.3;67.6
81031;SHT31;70513;51.984;5.648;2023-06-22T02:10:02;20.3;67.9
81031;SHT31;70513;51.984;5.648;2023-06-22T02:12:34;20.3;68.1
81031;SHT31;70513;51.984;5.648;2023-06-22T02:15:05;20.2;67.7
81031;SHT31;70513;51.984;5.648;2023-06-22T02:17:35;20.2;67.4
81031;SHT31;70513;51.984;5.648;2023-06-22T02:20:04;20.2;66.9
81031;SHT31;70513;51.984;5.648;2023-06-22T02:22:35;20.2;66.9
81031;SHT31;70513;51.984;5.648;2023-06-22T02:25:04;20.2;67.5
81031;SHT31;70513;51.984;5.648;2023-06-22T02:27:32;20.2;67.1
81031;SHT31;70513;51.984;5.648;2023-06-22T02:30:01;20.2;67.0
81031;SHT31;70513;51.984;5.648;2023-06-22T02:32:29;20.1;67.4
81031;SHT31;70513;51.984;5.648;2023-06-22T02:35:00;20.1;67.6
81031;SHT31;70513;51.984;5.648;2023-06-22T02:37:30;20.1;67.3
81031;SHT31;70513;51.984;5.648;2023-06-22T02:39:59;20.1;67.3
81031;SHT31;70513;51.984;5.648;2023-06-22T02:42:27;20.0;67.2
81031;SHT31;70513;51.984;5.648;2023-06-22T02:44:56;20.0;67.3
81031;SHT31;70513;51.984;5.648;2023-06-22T02:47:25;20.0;68.0
81031;SHT31;70513;51.984;5.648;2023-06-22T02:49:54;20.0;68.3
81031;SHT31;70513;51.984;5.648;2023-06-22T02:52:22;20.0;67.9
81031;SHT31;70513;51.984;5.648;2023-06-22T02:54:51;20.0;67.3
81031;SHT31;70513;51.984;5.648;2023-06-22T02:57:20;19.9;67.5
81031;SHT31;70513;51.984;5.648;2023-06-22T02:59:48;19.9;68.3
81031;SHT31;70513;51.984;5.648;2023-06-22T03:02:17;19.9;68.6
81031;SHT31;70513;51.984;5.648;2023-06-22T03:04:48;19.9;68.3
81031;SHT31;70513;51.984;5.648;2023-06-22T03:07:19;19.9;68.2
81031;SHT31;70513;51.984;5.648;2023-06-22T03:09:48;19.8;67.8
81031;SHT31;70513;51.984;5.648;2023-06-22T03:12:16;19.8;68.3
81031;SHT31;70513;51.984;5.648;2023-06-22T03:14:45;19.8;68.4
81031;SHT31;70513;51.984;5.648;2023-06-22T03:17:15;19.8;67.8
81031;SHT31;70513;51.984;5.648;2023-06-22T03:19:43;19.7;67.8
81031;SHT31;70513;51.984;5.648;2023-06-22T03:22:12;19.7;68.4
81031;SHT31;70513;51.984;5.648;2023-06-22T03:24:41;19.7;68.5
81031;SHT31;70513;51.984;5.648;2023-06-22T03:27:09;19.6;68.8
81031;SHT31;70513;51.984;5.648;2023-06-22T03:29:38;19.6;68.5
81031;SHT31;70513;51.984;5.648;2023-06-22T03:32:07;19.6;68.5
81031;SHT31;70513;51.984;5.648;2023-06-22T03:34:36;19.5;68.7
81031;SHT31;70513;51.984;5.648;2023-06-22T03:37:04;19.5;68.5
81031;SHT31;70513;51.984;5.648;2023-06-22T03:39:33;19.5;68.6
81031;SHT31;70513;51.984;5.648;2023-06-22T03:42:02;19.5;68.9
81031;SHT31;70513;51.984;5.648;2023-06-22T03:44:30;19.4;69.0
81031;SHT31;70513;51.984;5.648;2023-06-22T03:46:59;19.4;69.2
81031;SHT31;70513;51.984;5.648;2023-06-22T03:49:28;19.4;69.8
81031;SHT31;70513;51.984;5.648;2023-06-22T03:51:56;19.4;69.7
81031;SHT31;70513;51.984;5.648;2023-06-22T03:54:25;19.4;69.1
81031;SHT31;70513;51.984;5.648;2023-06-22T03:56:54;19.3;68.9
81031;SHT31;70513;51.984;5.648;2023-06-22T03:59:23;19.3;68.6
81031;SHT31;70513;51.984;5.648;2023-06-22T04:01:51;19.3;69.1
81031;SHT31;70513;51.984;5.648;2023-06-22T04:04:20;19.3;69.8
81031;SHT31;70513;51.984;5.648;2023-06-22T04:06:49;19.3;69.6
81031;SHT31;70513;51.984;5.648;2023-06-22T04:09:18;19.3;69.9
81031;SHT31;70513;51.984;5.648;2023-06-22T04:11:48;19.3;69.9
81031;SHT31;70513;51.984;5.648;2023-06-22T04:14:16;19.3;70.0
81031;SHT31;70513;51.984;5.648;2023-06-22T04:16:44;19.3;70.2
81031;SHT31;70513;51.984;5.648;2023-06-22T04:19:13;19.3;70.0
81031;SHT31;70513;51.984;5.648;2023-06-22T04:21:43;19.3;70.5
81031;SHT31;70513;51.984;5.648;2023-06-22T04:24:11;19.3;70.6
81031;SHT31;70513;51.984;5.648;2023-06-22T04:26:40;19.3;70.7
81031;SHT31;70513;51.984;5.648;2023-06-22T04:29:11;19.3;70.5
81031;SHT31;70513;51.984;5.648;2023-06-22T04:31:40;19.3;70.6
81031;SHT31;70513;51.984;5.648;2023-06-22T04:34:09;19.3;71.1
81031;SHT31;70513;51.984;5.648;2023-06-22T04:36:40;19.3;71.2
81031;SHT31;70513;51.984;5.648;2023-06-22T04:39:09;19.3;71.6
81031;SHT31;70513;51.984;5.648;2023-06-22T04:41:39;19.3;71.2
81031;SHT31;70513;51.984;5.648;2023-06-22T04:44:11;19.3;71.8
81031;SHT31;70513;51.984;5.648;2023-06-22T04:46:39;19.3;72.2
81031;SHT31;70513;51.984;5.648;2023-06-22T04:49:08;19.4;72.2
81031;SHT31;70513;51.984;5.648;2023-06-22T04:51:42;19.4;72.1
81031;SHT31;70513;51.984;5.648;2023-06-22T04:54:10;19.4;72.3
81031;SHT31;70513;51.984;5.648;2023-06-22T04:56:39;19.5;72.4
81031;SHT31;70513;51.984;5.648;2023-06-22T04:59:08;19.5;72.5
81031;SHT31;70513;51.984;5.648;2023-06-22T05:01:39;19.5;72.9
81031;SHT31;70513;51.984;5.648;2023-06-22T05:04:07;19.6;73.1
81031;SHT31;70513;51.984;5.648;2023-06-22T05:06:38;19.6;73.3
81031;SHT31;70513;51.984;5.648;2023-06-22T05:09:06;19.7;73.3
81031;SHT31;70513;51.984;5.648;2023-06-22T05:11:35;19.7;73.6
81031;SHT31;70513;51.984;5.648;2023-06-22T05:14:03;19.8;73.7
81031;SHT31;70513;51.984;5.648;2023-06-22T05:16:32;19.8;73.9
81031;SHT31;70513;51.984;5.648;2023-06-22T05:19:00;19.9;74.0
81031;SHT31;70513;51.984;5.648;2023-06-22T05:21:31;19.9;74.0
81031;SHT31;70513;51.984;5.648;2023-06-22T05:24:00;20.0;73.9
81031;SHT31;70513;51.984;5.648;2023-06-22T05:26:29;20.0;74.0
81031;SHT31;70513;51.984;5.648;2023-06-22T05:29:00;20.1;73.7
81031;SHT31;70513;51.984;5.648;2023-06-22T05:31:29;20.1;73.4
81031;SHT31;70513;51.984;5.648;2023-06-22T05:33:58;20.2;73.5
81031;SHT31;70513;51.984;5.648;2023-06-22T05:36:28;20.3;73.7
81031;SHT31;70513;51.984;5.648;2023-06-22T05:38:57;20.3;73.7
81031;SHT31;70513;51.984;5.648;2023-06-22T05:41:26;20.4;73.4
81031;SHT31;70513;51.984;5.648;2023-06-22T05:43:54;20.5;73.4
81031;SHT31;70513;51.984;5.648;2023-06-22T05:46:23;20.5;73.5
81031;SHT31;70513;51.984;5.648;2023-06-22T05:48:51;20.6;73.3
81031;SHT31;70513;51.984;5.648;2023-06-22T05:51:20;20.7;73.2
81031;SHT31;70513;51.984;5.648;2023-06-22T05:53:48;20.7;72.9
81031;SHT31;70513;51.984;5.648;2023-06-22T05:56:17;20.8;72.8
81031;SHT31;70513;51.984;5.648;2023-06-22T05:58:46;20.9;72.7
81031;SHT31;70513;51.984;5.648;2023-06-22T06:01:15;20.9;72.2
81031;SHT31;70513;51.984;5.648;2023-06-22T06:03:43;21.0;72.3
81031;SHT31;70513;51.984;5.648;2023-06-22T06:06:12;21.1;72.5
81031;SHT31;70513;51.984;5.648;2023-06-22T06:08:42;21.1;71.7
81031;SHT31;70513;51.984;5.648;2023-06-22T06:11:11;21.2;71.1
81031;SHT31;70513;51.984;5.648;2023-06-22T06:13:39;21.3;71.4
81031;SHT31;70513;51.984;5.648;2023-06-22T06:16:08;21.3;71.1
81031;SHT31;70513;51.984;5.648;2023-06-22T06:18:36;21.4;71.3
81031;SHT31;70513;51.984;5.648;2023-06-22T06:21:07;21.4;71.1
81031;SHT31;70513;51.984;5.648;2023-06-22T06:23:36;21.5;71.0
81031;SHT31;70513;51.984;5.648;2023-06-22T06:26:04;21.6;70.3
81031;SHT31;70513;51.984;5.648;2023-06-22T06:28:34;21.6;71.0
81031;SHT31;70513;51.984;5.648;2023-06-22T06:31:02;21.7;70.1
81031;SHT31;70513;51.984;5.648;2023-06-22T06:33:35;21.8;70.6
81031;SHT31;70513;51.984;5.648;2023-06-22T06:36:04;21.9;70.3
81031;SHT31;70513;51.984;5.648;2023-06-22T06:38:34;22.0;70.0
81031;SHT31;70513;51.984;5.648;2023-06-22T06:41:03;22.0;69.7
81031;SHT31;70513;51.984;5.648;2023-06-22T06:43:31;22.1;69.3
81031;SHT31;70513;51.984;5.648;2023-06-22T06:46:00;22.2;70.3
81031;SHT31;70513;51.984;5.648;2023-06-22T06:48:29;22.3;69.4
81031;SHT31;70513;51.984;5.648;2023-06-22T06:50:58;22.5;69.2
81031;SHT31;70513;51.984;5.648;2023-06-22T06:53:26;22.6;68.8
81031;SHT31;70513;51.984;5.648;2023-06-22T06:55:56;22.7;68.4
81031;SHT31;70513;51.984;5.648;2023-06-22T06:58:24;22.8;68.5
81031;SHT31;70513;51.984;5.648;2023-06-22T07:00:53;22.9;67.2
81031;SHT31;70513;51.984;5.648;2023-06-22T07:03:21;22.9;66.4
81031;SHT31;70513;51.984;5.648;2023-06-22T07:05:49;23.0;66.3
81031;SHT31;70513;51.984;5.648;2023-06-22T07:08:18;23.1;66.3
81031;SHT31;70513;51.984;5.648;2023-06-22T07:10:46;23.2;66.3
81031;SHT31;70513;51.984;5.648;2023-06-22T07:13:15;23.3;65.8
81031;SHT31;70513;51.984;5.648;2023-06-22T07:15:44;23.3;64.9
81031;SHT31;70513;51.984;5.648;2023-06-22T07:18:12;23.4;63.9
81031;SHT31;70513;51.984;5.648;2023-06-22T07:20:43;23.5;63.4
81031;SHT31;70513;51.984;5.648;2023-06-22T07:23:11;23.6;62.8
81031;SHT31;70513;51.984;5.648;2023-06-22T07:25:40;23.7;62.4
81031;SHT31;70513;51.984;5.648;2023-06-22T07:28:08;23.7;60.9
81031;SHT31;70513;51.984;5.648;2023-06-22T07:30:37;23.8;62.3
81031;SHT31;70513;51.984;5.648;2023-06-22T07:33:08;23.9;63.5
81031;SHT31;70513;51.984;5.648;2023-06-22T07:35:36;24.0;64.5
81031;SHT31;70513;51.984;5.648;2023-06-22T07:38:05;24.1;63.2
81031;SHT31;70513;51.984;5.648;2023-06-22T07:40:35;24.2;62.0
81031;SHT31;70513;51.984;5.648;2023-06-22T07:43:04;24.3;62.9
81031;SHT31;70513;51.984;5.648;2023-06-22T07:45:33;24.4;63.4
81031;SHT31;70513;51.984;5.648;2023-06-22T07:48:01;24.5;62.2
81031;SHT31;70513;51.984;5.648;2023-06-22T07:50:30;24.6;61.6
81031;SHT31;70513;51.984;5.648;2023-06-22T07:52:58;24.6;59.1
81031;SHT31;70513;51.984;5.648;2023-06-22T07:55:27;24.7;59.3
81031;SHT31;70513;51.984;5.648;2023-06-22T07:57:56;24.8;59.1
81031;SHT31;70513;51.984;5.648;2023-06-22T08:00:24;24.9;58.2
81031;SHT31;70513;51.984;5.648;2023-06-22T08:02:53;24.9;57.0
81031;SHT31;70513;51.984;5.648;2023-06-22T08:05:22;24.9;57.0
81031;SHT31;70513;51.984;5.648;2023-06-22T08:07:51;25.0;55.7
81031;SHT31;70513;51.984;5.648;2023-06-22T08:10:20;25.0;56.1
81031;SHT31;70513;51.984;5.648;2023-06-22T08:12:49;25.0;56.1
81031;SHT31;70513;51.984;5.648;2023-06-22T08:15:18;25.0;56.5
81031;SHT31;70513;51.984;5.648;2023-06-22T08:17:48;25.1;59.8
81031;SHT31;70513;51.984;5.648;2023-06-22T08:20:18;25.1;58.7
81031;SHT31;70513;51.984;5.648;2023-06-22T08:22:47;25.1;56.1
81031;SHT31;70513;51.984;5.648;2023-06-22T08:25:15;25.2;56.4
81031;SHT31;70513;51.984;5.648;2023-06-22T08:27:47;25.2;57.5
81031;SHT31;70513;51.984;5.648;2023-06-22T08:30:16;25.2;58.0
81031;SHT31;70513;51.984;5.648;2023-06-22T08:32:45;25.3;60.8
81031;SHT31;70513;51.984;5.648;2023-06-22T08:35:14;25.3;59.4
81031;SHT31;70513;51.984;5.648;2023-06-22T08:37:42;25.4;57.0
81031;SHT31;70513;51.984;5.648;2023-06-22T08:40:16;25.4;57.2
81031;SHT31;70513;51.984;5.648;2023-06-22T08:42:46;25.4;56.9
81031;SHT31;70513;51.984;5.648;2023-06-22T08:45:15;25.4;57.5
81031;SHT31;70513;51.984;5.648;2023-06-22T08:47:44;25.5;57.1
81031;SHT31;70513;51.984;5.648;2023-06-22T08:50:13;25.5;55.7
81031;SHT31;70513;51.984;5.648;2023-06-22T08:52:41;25.5;57.1
81031;SHT31;70513;51.984;5.648;2023-06-22T08:55:10;25.6;57.6
81031;SHT31;70513;51.984;5.648;2023-06-22T08:57:40;25.6;57.5
81031;SHT31;70513;51.984;5.648;2023-06-22T09:00:11;25.7;57.2
81031;SHT31;70513;51.984;5.648;2023-06-22T09:02:45;25.7;57.0
81031;SHT31;70513;51.984;5.648;2023-06-22T09:05:14;25.8;56.4
81031;SHT31;70513;51.984;5.648;2023-06-22T09:07:43;25.8;58.2
81031;SHT31;70513;51.984;5.648;2023-06-22T09:10:12;25.9;55.5
81031;SHT31;70513;51.984;5.648;2023-06-22T09:12:41;25.9;58.4
81031;SHT31;70513;51.984;5.648;2023-06-22T09:15:10;25.9;56.6
81031;SHT31;70513;51.984;5.648;2023-06-22T09:17:39;26.0;57.0
81031;SHT31;70513;51.984;5.648;2023-06-22T09:20:09;26.0;55.5
81031;SHT31;70513;51.984;5.648;2023-06-22T09:22:38;26.1;55.1
81031;SHT31;70513;51.984;5.648;2023-06-22T09:25:07;26.1;54.2
81031;SHT31;70513;51.984;5.648;2023-06-22T09:27:36;26.2;54.2
81031;SHT31;70513;51.984;5.648;2023-06-22T09:30:05;26.2;53.8
81031;SHT31;70513;51.984;5.648;2023-06-22T09:32:34;26.2;53.3
81031;SHT31;70513;51.984;5.648;2023-06-22T09:35:05;26.2;53.4
81031;SHT31;70513;51.984;5.648;2023-06-22T09:37:35;26.2;51.9
81031;SHT31;70513;51.984;5.648;2023-06-22T09:40:05;26.2;50.5
81031;SHT31;70513;51.984;5.648;2023-06-22T09:42:35;26.2;53.5
81031;SHT31;70513;51.984;5.648;2023-06-22T09:45:04;26.2;51.2
81031;SHT31;70513;51.984;5.648;2023-06-22T09:47:32;26.2;51.0
81031;SHT31;70513;51.984;5.648;2023-06-22T09:50:01;26.2;49.8
81031;SHT31;70513;51.984;5.648;2023-06-22T09:52:32;26.2;50.9
81031;SHT31;70513;51.984;5.648;2023-06-22T09:55:00;26.1;51.3
81031;SHT31;70513;51.984;5.648;2023-06-22T09:57:30;26.1;50.5
81031;SHT31;70513;51.984;5.648;2023-06-22T10:00:00;26.1;49.4
81031;SHT31;70513;51.984;5.648;2023-06-22T10:02:32;26.0;50.3
81031;SHT31;70513;51.984;5.648;2023-06-22T10:05:00;26.0;50.1
81031;SHT31;70513;51.984;5.648;2023-06-22T10:07:29;26.0;51.3
81031;SHT31;70513;51.984;5.648;2023-06-22T10:09:57;25.9;51.1
81031;SHT31;70513;51.984;5.648;2023-06-22T10:12:27;25.9;51.8
81031;SHT31;70513;51.984;5.648;2023-06-22T10:14:56;25.9;50.6
81031;SHT31;70513;51.984;5.648;2023-06-22T10:17:24;25.8;51.4
81031;SHT31;70513;51.984;5.648;2023-06-22T10:19:54;25.8;51.4
81031;SHT31;70513;51.984;5.648;2023-06-22T10:22:23;25.8;51.4
81031;SHT31;70513;51.984;5.648;2023-06-22T10:24:51;25.7;52.5
81031;SHT31;70513;51.984;5.648;2023-06-22T10:27:20;25.7;54.4
81031;SHT31;70513;51.984;5.648;2023-06-22T10:29:48;25.7;54.3
81031;SHT31;70513;51.984;5.648;2023-06-22T10:32:17;25.7;55.5
81031;SHT31;70513;51.984;5.648;2023-06-22T10:34:45;25.7;55.2
81031;SHT31;70513;51.984;5.648;2023-06-22T10:37:14;25.7;56.1
81031;SHT31;70513;51.984;5.648;2023-06-22T10:39:42;25.6;55.3
81031;SHT31;70513;51.984;5.648;2023-06-22T10:42:12;25.6;54.7
81031;SHT31;70513;51.984;5.648;2023-06-22T10:44:41;25.6;55.3
81031;SHT31;70513;51.984;5.648;2023-06-22T10:47:11;25.6;55.5
81031;SHT31;70513;51.984;5.648;2023-06-22T10:49:40;25.6;55.5
81031;SHT31;70513;51.984;5.648;2023-06-22T10:52:11;25.6;56.0
81031;SHT31;70513;51.984;5.648;2023-06-22T10:54:41;25.6;54.9
81031;SHT31;70513;51.984;5.648;2023-06-22T10:57:09;25.6;55.0
81031;SHT31;70513;51.984;5.648;2023-06-22T10:59:38;25.6;54.7
81031;SHT31;70513;51.984;5.648;2023-06-22T11:02:07;25.6;56.2
81031;SHT31;70513;51.984;5.648;2023-06-22T11:04:35;25.6;55.8
81031;SHT31;70513;51.984;5.648;2023-06-22T11:07:04;25.6;56.2
81031;SHT31;70513;51.984;5.648;2023-06-22T11:09:33;25.6;58.1
81031;SHT31;70513;51.984;5.648;2023-06-22T11:12:01;25.7;57.0
81031;SHT31;70513;51.984;5.648;2023-06-22T11:14:30;25.7;56.8
81031;SHT31;70513;51.984;5.648;2023-06-22T11:16:59;25.7;55.0
81031;SHT31;70513;51.984;5.648;2023-06-22T11:19:28;25.7;56.7
81031;SHT31;70513;51.984;5.648;2023-06-22T11:21:57;25.7;57.2
81031;SHT31;70513;51.984;5.648;2023-06-22T11:24:26;25.7;56.2
81031;SHT31;70513;51.984;5.648;2023-06-22T11:26:54;25.7;56.8
81031;SHT31;70513;51.984;5.648;2023-06-22T11:29:23;25.7;56.0
81031;SHT31;70513;51.984;5.648;2023-06-22T11:31:53;25.7;58.0
81031;SHT31;70513;51.984;5.648;2023-06-22T11:34:21;25.7;57.8
81031;SHT31;70513;51.984;5.648;2023-06-22T11:36:51;25.6;58.7
81031;SHT31;70513;51.984;5.648;2023-06-22T11:39:19;25.6;57.9
81031;SHT31;70513;51.984;5.648;2023-06-22T11:41:48;25.6;59.8
81031;SHT31;70513;51.984;5.648;2023-06-22T11:44:16;25.6;60.3
81031;SHT31;70513;51.984;5.648;2023-06-22T11:46:45;25.6;57.8
81031;SHT31;70513;51.984;5.648;2023-06-22T11:49:14;25.6;58.6
81031;SHT31;70513;51.984;5.648;2023-06-22T11:51:43;25.5;58.1
81031;SHT31;70513;51.984;5.648;2023-06-22T11:54:11;25.5;59.0
81031;SHT31;70513;51.984;5.648;2023-06-22T11:56:40;25.5;59.3
81031;SHT31;70513;51.984;5.648;2023-06-22T11:59:08;25.5;60.0
81031;SHT31;70513;51.984;5.648;2023-06-22T12:01:37;25.4;61.9
81031;SHT31;70513;51.984;5.648;2023-06-22T12:04:05;25.4;59.3
81031;SHT31;70513;51.984;5.648;2023-06-22T12:06:38;25.4;61.7
81031;SHT31;70513;51.984;5.648;2023-06-22T12:09:09;25.3;62.7
81031;SHT31;70513;51.984;5.648;2023-06-22T12:11:40;25.3;63.9
81031;SHT31;70513;51.984;5.648;2023-06-22T12:14:08;25.3;64.2
81031;SHT31;70513;51.984;5.648;2023-06-22T12:16:37;25.2;65.4
81031;SHT31;70513;51.984;5.648;2023-06-22T12:19:05;25.1;63.6
81031;SHT31;70513;51.984;5.648;2023-06-22T12:21:36;25.1;64.1
81031;SHT31;70513;51.984;5.648;2023-06-22T12:24:05;25.0;64.3
81031;SHT31;70513;51.984;5.648;2023-06-22T12:26:34;24.9;64.6
81031;SHT31;70513;51.984;5.648;2023-06-22T12:29:03;24.9;65.1
81031;SHT31;70513;51.984;5.648;2023-06-22T12:31:31;24.8;66.9
81031;SHT31;70513;51.984;5.648;2023-06-22T12:34:00;24.7;67.4
81031;SHT31;70513;51.984;5.648;2023-06-22T12:36:28;24.6;67.6
81031;SHT31;70513;51.984;5.648;2023-06-22T12:38:57;24.6;67.6
81031;SHT31;70513;51.984;5.648;2023-06-22T12:41:25;24.5;69.0
81031;SHT31;70513;51.984;5.648;2023-06-22T12:43:53;24.4;69.8
81031;SHT31;70513;51.984;5.648;2023-06-22T12:46:22;24.3;70.4
81031;SHT31;70513;51.984;5.648;2023-06-22T12:48:50;24.3;71.4
81031;SHT31;70513;51.984;5.648;2023-06-22T12:51:22;24.2;71.7
81031;SHT31;70513;51.984;5.648;2023-06-22T12:53:51;24.1;72.1
81031;SHT31;70513;51.984;5.648;2023-06-22T12:56:19;24.0;73.1
81031;SHT31;70513;51.984;5.648;2023-06-22T12:58:48;23.9;72.9
81031;SHT31;70513;51.984;5.648;2023-06-22T13:01:16;23.8;73.1
81031;SHT31;70513;51.984;5.648;2023-06-22T13:03:45;23.6;73.7
81031;SHT31;70513;51.984;5.648;2023-06-22T13:06:14;23.5;74.8
81031;SHT31;70513;51.984;5.648;2023-06-22T13:08:42;23.5;75.5
81031;SHT31;70513;51.984;5.648;2023-06-22T13:11:11;23.4;76.3
81031;SHT31;70513;51.984;5.648;2023-06-22T13:13:40;23.3;77.0
81031;SHT31;70513;51.984;5.648;2023-06-22T13:16:09;23.3;77.5
81031;SHT31;70513;51.984;5.648;2023-06-22T13:18:37;23.3;77.7
81031;SHT31;70513;51.984;5.648;2023-06-22T13:21:06;23.2;77.4
81031;SHT31;70513;51.984;5.648;2023-06-22T13:23:34;23.2;77.0
81031;SHT31;70513;51.984;5.648;2023-06-22T13:26:03;23.2;76.6
81031;SHT31;70513;51.984;5.648;2023-06-22T13:28:31;23.1;77.2
81031;SHT31;70513;51.984;5.648;2023-06-22T13:31:00;23.1;77.4
81031;SHT31;70513;51.984;5.648;2023-06-22T13:33:28;23.1;77.3
81031;SHT31;70513;51.984;5.648;2023-06-22T13:35:57;23.1;77.4
81031;SHT31;70513;51.984;5.648;2023-06-22T13:38:25;23.0;77.5
81031;SHT31;70513;51.984;5.648;2023-06-22T13:40:54;23.0;77.8
81031;SHT31;70513;51.984;5.648;2023-06-22T13:43:27;23.0;77.9
81031;SHT31;70513;51.984;5.648;2023-06-22T13:45:55;23.0;77.9
81031;SHT31;70513;51.984;5.648;2023-06-22T13:48:24;22.9;77.7
81031;SHT31;70513;51.984;5.648;2023-06-22T13:50:55;22.9;77.3
81031;SHT31;70513;51.984;5.648;2023-06-22T13:53:24;22.9;78.0
81031;SHT31;70513;51.984;5.648;2023-06-22T13:55:53;22.8;77.9
81031;SHT31;70513;51.984;5.648;2023-06-22T13:58:21;22.8;77.3
81031;SHT31;70513;51.984;5.648;2023-06-22T14:00:50;22.7;78.1
81031;SHT31;70513;51.984;5.648;2023-06-22T14:03:18;22.6;78.3
81031;SHT31;70513;51.984;5.648;2023-06-22T14:05:47;22.6;78.6
81031;SHT31;70513;51.984;5.648;2023-06-22T14:08:15;22.5;79.4
81031;SHT31;70513;51.984;5.648;2023-06-22T14:10:46;22.4;80.0
81031;SHT31;70513;51.984;5.648;2023-06-22T14:13:14;22.4;80.1
81031;SHT31;70513;51.984;5.648;2023-06-22T14:15:43;22.3;80.7
81031;SHT31;70513;51.984;5.648;2023-06-22T14:18:14;22.3;80.9
81031;SHT31;70513;51.984;5.648;2023-06-22T14:20:43;22.2;80.7
81031;SHT31;70513;51.984;5.648;2023-06-22T14:23:12;22.2;80.7
81031;SHT31;70513;51.984;5.648;2023-06-22T14:25:41;22.1;81.0
81031;SHT31;70513;51.984;5.648;2023-06-22T14:28:09;22.1;80.8
81031;SHT31;70513;51.984;5.648;2023-06-22T14:30:38;22.0;81.2
81031;SHT31;70513;51.984;5.648;2023-06-22T14:33:06;22.0;80.8
81031;SHT31;70513;51.984;5.648;2023-06-22T14:35:35;21.9;81.2
81031;SHT31;70513;51.984;5.648;2023-06-22T14:38:03;21.9;81.5
81031;SHT31;70513;51.984;5.648;2023-06-22T14:40:34;21.8;81.8
81031;SHT31;70513;51.984;5.648;2023-06-22T14:43:02;21.8;81.8
81031;SHT31;70513;51.984;5.648;2023-06-22T14:45:31;21.7;81.9
81031;SHT31;70513;51.984;5.648;2023-06-22T14:47:59;21.7;82.4
81031;SHT31;70513;51.984;5.648;2023-06-22T14:50:28;21.6;82.5
81031;SHT31;70513;51.984;5.648;2023-06-22T14:52:56;21.6;81.9
81031;SHT31;70513;51.984;5.648;2023-06-22T14:55:26;21.6;82.3
81031;SHT31;70513;51.984;5.648;2023-06-22T14:57:54;21.5;82.6
81031;SHT31;70513;51.984;5.648;2023-06-22T15:00:25;21.5;82.3
81031;SHT31;70513;51.984;5.648;2023-06-22T15:02:53;21.5;82.3
81031;SHT31;70513;51.984;5.648;2023-06-22T15:05:22;21.4;82.5
81031;SHT31;70513;51.984;5.648;2023-06-22T15:07:51;21.4;82.8
81031;SHT31;70513;51.984;5.648;2023-06-22T15:10:20;21.4;82.7
81031;SHT31;70513;51.984;5.648;2023-06-22T15:12:49;21.4;83.2
81031;SHT31;70513;51.984;5.648;2023-06-22T15:15:17;21.4;83.6
81031;SHT31;70513;51.984;5.648;2023-06-22T15:17:46;21.4;83.6
81031;SHT31;70513;51.984;5.648;2023-06-22T15:20:15;21.4;83.6
81031;SHT31;70513;51.984;5.648;2023-06-22T15:22:43;21.4;83.1
81031;SHT31;70513;51.984;5.648;2023-06-22T15:25:12;21.3;83.1
81031;SHT31;70513;51.984;5.648;2023-06-22T15:27:40;21.3;83.5
81031;SHT31;70513;51.984;5.648;2023-06-22T15:30:10;21.3;83.9
81031;SHT31;70513;51.984;5.648;2023-06-22T15:32:38;21.3;83.8
81031;SHT31;70513;51.984;5.648;2023-06-22T15:35:11;21.3;83.5
81031;SHT31;70513;51.984;5.648;2023-06-22T15:37:41;21.3;83.2
81031;SHT31;70513;51.984;5.648;2023-06-22T15:40:09;21.3;83.0
81031;SHT31;70513;51.984;5.648;2023-06-22T15:42:38;21.3;83.3
81031;SHT31;70513;51.984;5.648;2023-06-22T15:45:07;21.3;83.3
81031;SHT31;70513;51.984;5.648;2023-06-22T15:47:36;21.3;83.7
81031;SHT31;70513;51.984;5.648;2023-06-22T15:50:05;21.2;83.7
81031;SHT31;70513;51.984;5.648;2023-06-22T15:52:34;21.2;83.5
81031;SHT31;70513;51.984;5.648;2023-06-22T15:55:03;21.2;83.8
81031;SHT31;70513;51.984;5.648;2023-06-22T15:57:31;21.2;83.8
81031;SHT31;70513;51.984;5.648;2023-06-22T16:00:01;21.2;84.1
81031;SHT31;70513;51.984;5.648;2023-06-22T16:02:30;21.2;83.9
81031;SHT31;70513;51.984;5.648;2023-06-22T16:04:58;21.2;84.1
81031;SHT31;70513;51.984;5.648;2023-06-22T16:07:28;21.2;84.4
81031;SHT31;70513;51.984;5.648;2023-06-22T16:09:57;21.2;84.1
81031;SHT31;70513;51.984;5.648;2023-06-22T16:12:25;21.2;84.3
81031;SHT31;70513;51.984;5.648;2023-06-22T16:14:55;21.2;84.6